createdAt,value
2023-04-18T00:00:58.714Z,4.4892
2023-04-18T00:02:02.663Z,4.5029
2023-04-18T00:03:06.802Z,4.0723
2023-04-18T00:04:11.045Z,3.8171
2023-04-18T00:05:15.275Z,2.7900
2023-04-18T00:06:19.172Z,3.9861
2023-04-18T00:07:23.086Z,3.9660
2023-04-18T00:08:26.981Z,3.8298
2023-04-18T00:09:30.925Z,3.5926
2023-04-18T00:10:35.049Z,2.6866
2023-04-18T00:11:38.956Z,3.1031
2023-04-18T00:12:43.312Z,3.1482
2023-04-18T00:13:47.241Z,3.3668
2023-04-18T00:14:51.124Z,3.6468
2023-04-18T00:15:55.054Z,4.0736
2023-04-18T00:16:58.988Z,3.0784
2023-04-18T00:18:03.328Z,2.8059
2023-04-18T00:19:07.280Z,4.1375
2023-04-18T00:20:11.450Z,4.0710
2023-04-18T00:21:15.331Z,2.7446
2023-04-18T00:22:19.247Z,3.6960
2023-04-18T00:23:23.155Z,3.8039
2023-04-18T00:24:27.054Z,4.0582
2023-04-18T00:25:30.972Z,4.2724
2023-04-18T00:26:34.872Z,3.5473
2023-04-18T00:27:39.049Z,3.8071
2023-04-18T00:28:42.926Z,3.7216
2023-04-18T00:29:47.072Z,4.0450
2023-04-18T00:30:50.988Z,3.0686
2023-04-18T00:31:54.874Z,2.6448
2023-04-18T00:32:58.807Z,3.3162
2023-04-18T00:34:02.716Z,4.2452
2023-04-18T00:35:06.947Z,4.8312
2023-04-18T00:36:10.849Z,3.2671
2023-04-18T00:37:14.771Z,4.1034
2023-04-18T00:38:18.720Z,4.8017
2023-04-18T00:39:22.617Z,4.2326
2023-04-18T00:40:26.781Z,4.0409
2023-04-18T00:41:30.709Z,4.1773
2023-04-18T00:42:34.913Z,3.9672
2023-04-18T00:43:38.989Z,3.7770
2023-04-18T00:44:42.899Z,4.2271
2023-04-18T00:45:46.828Z,3.9565
2023-04-18T00:46:50.722Z,3.5267
2023-04-18T00:47:54.656Z,3.7569
2023-04-18T00:48:58.586Z,2.3075
2023-04-18T00:50:02.492Z,3.7722
2023-04-18T00:51:06.400Z,5.0112
2023-04-18T00:52:10.305Z,3.5291
2023-04-18T00:53:14.215Z,3.3245
2023-04-18T00:54:18.125Z,4.6623
2023-04-18T00:55:22.247Z,3.1166
2023-04-18T00:56:26.167Z,2.5062
2023-04-18T00:57:30.286Z,3.0676
2023-04-18T00:58:34.196Z,4.9721
2023-04-18T00:59:38.107Z,4.1711
2023-04-18T01:00:42.017Z,3.9776
2023-04-18T01:01:45.926Z,3.1508
2023-04-18T01:02:50.302Z,3.2006
2023-04-18T01:03:54.318Z,3.1308
2023-04-18T01:04:58.520Z,2.7311
2023-04-18T01:06:02.413Z,3.9136
2023-04-18T01:07:06.369Z,3.5925
2023-04-18T01:08:10.238Z,3.8594
2023-04-18T01:09:14.161Z,3.5730
2023-04-18T01:10:18.384Z,4.2158
2023-04-18T01:11:22.275Z,3.6969
2023-04-18T01:12:26.186Z,3.9423
2023-04-18T01:13:30.081Z,4.4772
2023-04-18T01:14:33.987Z,3.1677
2023-04-18T01:15:37.948Z,3.8121
2023-04-18T01:16:41.814Z,4.4438
2023-04-18T01:17:45.729Z,3.5793
2023-04-18T01:18:49.657Z,2.6705
2023-04-18T01:19:53.817Z,2.6854
2023-04-18T01:20:57.730Z,3.0139
2023-04-18T01:22:01.622Z,3.8427
2023-04-18T01:23:05.528Z,3.2390
2023-04-18T01:24:09.429Z,4.6702
2023-04-18T01:25:13.334Z,3.6172
2023-04-18T01:26:17.269Z,3.8163
2023-04-18T01:27:21.442Z,3.8077
2023-04-18T01:28:25.337Z,4.3938
2023-04-18T01:29:29.480Z,4.6959
2023-04-18T01:30:33.387Z,4.3432
2023-04-18T01:31:37.346Z,4.0066
2023-04-18T01:32:41.293Z,3.6757
2023-04-18T01:33:45.187Z,3.1013
2023-04-18T01:34:49.114Z,4.1135
2023-04-18T01:35:53.029Z,5.3380
2023-04-18T01:36:56.922Z,4.2964
2023-04-18T01:38:00.827Z,3.5407
2023-04-18T01:39:04.741Z,4.0080
2023-04-18T01:40:08.979Z,3.5523
2023-04-18T01:41:12.859Z,3.7206
2023-04-18T01:42:16.773Z,3.3351
2023-04-18T01:43:20.684Z,3.8671
2023-04-18T01:44:24.594Z,3.3608
2023-04-18T01:45:28.511Z,3.7522
2023-04-18T01:46:32.473Z,4.4576
2023-04-18T01:47:36.558Z,4.0069
2023-04-18T01:48:40.483Z,4.7752
2023-04-18T01:49:44.374Z,4.1586
2023-04-18T01:50:48.287Z,3.6712
2023-04-18T01:51:52.181Z,4.3111
2023-04-18T01:52:56.107Z,3.0964
2023-04-18T01:54:00.020Z,3.9868
2023-04-18T01:55:04.146Z,4.3594
2023-04-18T01:56:08.070Z,4.0504
2023-04-18T01:57:12.005Z,3.5028
2023-04-18T01:58:15.909Z,3.5748
2023-04-18T01:59:19.810Z,4.4067
2023-04-18T02:00:23.934Z,2.6415
2023-04-18T02:01:27.888Z,3.2220
2023-04-18T02:02:32.087Z,3.3823
2023-04-18T02:03:36.259Z,3.8884
2023-04-18T02:04:40.236Z,3.8869
2023-04-18T02:05:44.171Z,2.9895
2023-04-18T02:06:48.079Z,3.9107
2023-04-18T02:07:52.008Z,3.3834
2023-04-18T02:08:55.934Z,3.7137
2023-04-18T02:10:00.071Z,3.5943
2023-04-18T02:11:03.934Z,3.3985
2023-04-18T02:12:08.084Z,4.7903
2023-04-18T02:13:11.989Z,4.0953
2023-04-18T02:14:15.928Z,3.3291
2023-04-18T02:15:19.888Z,3.7398
2023-04-18T02:16:23.831Z,3.4376
2023-04-18T02:17:27.740Z,4.2755
2023-04-18T02:18:31.607Z,4.5906
2023-04-18T02:19:35.765Z,3.1671
2023-04-18T02:20:39.651Z,3.7211
2023-04-18T02:21:43.557Z,4.7040
2023-04-18T02:22:47.466Z,3.9703
2023-04-18T02:23:51.383Z,3.7943
2023-04-18T02:24:55.532Z,3.9910
2023-04-18T02:25:59.436Z,3.3596
2023-04-18T02:27:03.329Z,3.3587
2023-04-18T02:28:07.229Z,3.5249
2023-04-18T02:29:11.134Z,4.1460
2023-04-18T02:30:15.029Z,4.2566
2023-04-18T02:31:18.931Z,3.9667
2023-04-18T02:32:22.850Z,3.3546
2023-04-18T02:33:26.745Z,3.1883
2023-04-18T02:34:30.956Z,3.2351
2023-04-18T02:35:34.829Z,3.1232
2023-04-18T02:36:38.711Z,3.1735
2023-04-18T02:37:42.608Z,4.2847
2023-04-18T02:38:46.493Z,3.7432
2023-04-18T02:39:50.396Z,4.0991
2023-04-18T02:40:54.308Z,3.3240
2023-04-18T02:41:58.436Z,3.4698
2023-04-18T02:43:02.332Z,3.8751
2023-04-18T02:44:06.237Z,3.4437
2023-04-18T02:45:10.377Z,3.8501
2023-04-18T02:46:14.323Z,3.3042
2023-04-18T02:47:18.207Z,3.7088
2023-04-18T02:48:22.114Z,3.5782
2023-04-18T02:49:25.979Z,3.6477
2023-04-18T02:50:29.887Z,3.5441
2023-04-18T02:51:33.814Z,3.6566
2023-04-18T02:52:37.722Z,3.4536
2023-04-18T02:53:41.658Z,2.8546
2023-04-18T02:54:45.741Z,3.7009
2023-04-18T02:55:49.626Z,3.4307
2023-04-18T02:56:53.740Z,3.3977
2023-04-18T02:57:57.624Z,3.4108
2023-04-18T02:59:01.519Z,3.6391
2023-04-18T03:00:05.381Z,4.0454
2023-04-18T03:01:09.313Z,3.9941
2023-04-18T03:02:13.466Z,3.9908
2023-04-18T03:03:17.391Z,3.4721
2023-04-18T03:04:21.310Z,3.2022
2023-04-18T03:05:25.187Z,3.8666
2023-04-18T03:06:29.074Z,4.3350
2023-04-18T03:07:33.009Z,3.5028
2023-04-18T03:08:36.920Z,3.8592
2023-04-18T03:09:41.040Z,3.7772
2023-04-18T03:10:44.920Z,4.9301
2023-04-18T03:11:48.914Z,4.2288
2023-04-18T03:12:52.804Z,3.6296
2023-04-18T03:13:56.722Z,3.4543
2023-04-18T03:15:00.624Z,4.3414
2023-04-18T03:16:04.629Z,3.6472
2023-04-18T03:17:08.761Z,3.6468
2023-04-18T03:18:12.681Z,3.3734
2023-04-18T03:19:16.831Z,3.2705
2023-04-18T03:20:20.733Z,3.2379
2023-04-18T03:21:24.624Z,3.8828
2023-04-18T03:22:28.525Z,2.3268
2023-04-18T03:23:32.407Z,3.1109
2023-04-18T03:24:36.521Z,3.9166
2023-04-18T03:25:40.402Z,3.6490
2023-04-18T03:26:44.524Z,4.5933
2023-04-18T03:27:48.407Z,3.8481
2023-04-18T03:28:52.301Z,3.7623
2023-04-18T03:29:56.185Z,4.0892
2023-04-18T03:31:00.144Z,4.4110
2023-04-18T03:32:04.055Z,3.2424
2023-04-18T03:33:07.953Z,4.1878
2023-04-18T03:34:12.120Z,4.4542
2023-04-18T03:35:16.217Z,4.1327
2023-04-18T03:36:20.138Z,3.1653
2023-04-18T03:37:24.046Z,3.7728
2023-04-18T03:38:27.944Z,3.6647
2023-04-18T03:39:32.078Z,3.2348
2023-04-18T03:40:35.966Z,4.8126
2023-04-18T03:41:39.835Z,4.3148
2023-04-18T03:42:43.724Z,3.9126
2023-04-18T03:43:47.594Z,3.6409
2023-04-18T03:44:51.498Z,3.1408
2023-04-18T03:45:55.411Z,3.6560
2023-04-18T03:46:59.614Z,3.3879
2023-04-18T03:48:03.502Z,4.6738
2023-04-18T03:49:07.560Z,3.6807
2023-04-18T03:50:11.439Z,3.7161
2023-04-18T03:51:15.316Z,3.4325
2023-04-18T03:52:19.198Z,2.7016
2023-04-18T03:53:23.081Z,2.8367
2023-04-18T03:54:27.281Z,3.6149
2023-04-18T03:55:31.172Z,3.0393
2023-04-18T03:56:35.793Z,3.6425
2023-04-18T03:57:41.275Z,3.6059
2023-04-18T03:58:39.983Z,3.5522
2023-04-18T03:59:45.567Z,4.2026
2023-04-18T04:00:45.274Z,3.6341
2023-04-18T04:01:49.488Z,3.8703
2023-04-18T04:02:53.520Z,2.8772
2023-04-18T04:03:57.559Z,4.2145
2023-04-18T04:05:01.519Z,3.5045
2023-04-18T04:06:05.445Z,3.6305
2023-04-18T04:07:09.571Z,4.1107
2023-04-18T04:08:13.475Z,3.3745
2023-04-18T04:09:17.374Z,3.8468
2023-04-18T04:10:21.282Z,3.0436
2023-04-18T04:11:25.197Z,3.8018
2023-04-18T04:12:29.156Z,3.6703
2023-04-18T04:13:33.036Z,3.7692
2023-04-18T04:14:37.035Z,3.9397
2023-04-18T04:15:40.928Z,4.0848
2023-04-18T04:16:45.027Z,4.0959
2023-04-18T04:17:48.976Z,3.8144
2023-04-18T04:18:52.865Z,4.8754
2023-04-18T04:19:56.748Z,5.0741
2023-04-18T04:21:00.660Z,5.2104
2023-04-18T04:22:04.558Z,4.4566
2023-04-18T04:23:08.467Z,4.6445
2023-04-18T04:24:12.534Z,4.6740
2023-04-18T04:25:16.546Z,5.9834
2023-04-18T04:26:20.460Z,5.6577
2023-04-18T04:27:24.383Z,5.1411
2023-04-18T04:28:28.272Z,4.4495
2023-04-18T04:29:32.423Z,5.2099
2023-04-18T04:30:36.313Z,5.5476
2023-04-18T04:31:40.472Z,5.6328
2023-04-18T04:32:44.375Z,6.4985
2023-04-18T04:33:48.242Z,6.8881
2023-04-18T04:34:52.121Z,5.7186
2023-04-18T04:35:56.024Z,5.7727
2023-04-18T04:36:59.914Z,5.9479
2023-04-18T04:38:03.813Z,5.6786
2023-04-18T04:39:07.938Z,6.5913
2023-04-18T04:40:11.847Z,5.9229
2023-04-18T04:41:15.709Z,6.2660
2023-04-18T04:42:19.588Z,6.6040
2023-04-18T04:43:23.488Z,6.4830
2023-04-18T04:44:27.700Z,7.7324
2023-04-18T04:45:31.612Z,6.2236
2023-04-18T04:46:35.773Z,7.1832
2023-04-18T04:47:39.739Z,6.0283
2023-04-18T04:48:43.649Z,7.5431
2023-04-18T04:49:47.493Z,7.0132
2023-04-18T04:50:51.376Z,6.2089
2023-04-18T04:51:55.285Z,5.8323
2023-04-18T04:52:59.185Z,6.2527
2023-04-18T04:54:03.109Z,7.1662
2023-04-18T04:55:06.988Z,7.3052
2023-04-18T04:56:10.859Z,7.4080
2023-04-18T04:57:14.768Z,7.4310
2023-04-18T04:58:18.685Z,5.9861
2023-04-18T04:59:22.989Z,5.6276
2023-04-18T05:00:26.910Z,6.2702
2023-04-18T05:01:31.061Z,6.8089
2023-04-18T05:02:35.050Z,6.1937
2023-04-18T05:03:39.438Z,7.0894
2023-04-18T05:04:43.431Z,6.3319
2023-04-18T05:05:47.275Z,7.2853
2023-04-18T05:06:51.264Z,7.4544
2023-04-18T05:07:55.153Z,6.6523
2023-04-18T05:08:59.043Z,6.0759
2023-04-18T05:10:02.969Z,6.6555
2023-04-18T05:11:06.863Z,6.9717
2023-04-18T05:12:11.012Z,5.9974
2023-04-18T05:13:14.915Z,5.5825
2023-04-18T05:14:19.025Z,6.8242
2023-04-18T05:15:22.914Z,6.1776
2023-04-18T05:16:26.872Z,5.6216
2023-04-18T05:17:30.789Z,6.9436
2023-04-18T05:18:35.092Z,5.8422
2023-04-18T05:19:39.019Z,5.8504
2023-04-18T05:20:42.901Z,5.7058
2023-04-18T05:21:46.779Z,4.7556
2023-04-18T05:22:50.686Z,4.8835
2023-04-18T05:23:54.867Z,5.5292
2023-04-18T05:24:58.749Z,5.3999
2023-04-18T05:26:02.678Z,6.5551
2023-04-18T05:27:06.592Z,4.8671
2023-04-18T05:28:10.471Z,4.8840
2023-04-18T05:29:14.347Z,6.4640
2023-04-18T05:30:18.264Z,6.4055
2023-04-18T05:31:22.201Z,4.3032
2023-04-18T05:32:26.057Z,5.9388
2023-04-18T05:33:29.953Z,5.4798
2023-04-18T05:34:33.839Z,5.2393
2023-04-18T05:35:37.745Z,5.3282
2023-04-18T05:36:41.658Z,5.5620
2023-04-18T05:37:45.541Z,4.5617
2023-04-18T05:38:49.456Z,5.7673
2023-04-18T05:39:53.343Z,5.3477
2023-04-18T05:40:57.221Z,5.1262
2023-04-18T05:42:01.367Z,5.3307
2023-04-18T05:43:05.269Z,6.9043
2023-04-18T05:44:09.186Z,5.0188
2023-04-18T05:45:13.086Z,4.3755
2023-04-18T05:46:17.300Z,5.2616
2023-04-18T05:47:21.275Z,6.3237
2023-04-18T05:48:25.188Z,5.9299
2023-04-18T05:49:29.063Z,6.0851
2023-04-18T05:50:32.958Z,5.7250
2023-04-18T05:51:37.083Z,5.4367
2023-04-18T05:52:40.984Z,5.3702
2023-04-18T05:53:44.855Z,5.4242
2023-04-18T05:54:48.757Z,6.6010
2023-04-18T05:55:52.635Z,6.4133
2023-04-18T05:56:56.528Z,6.2553
2023-04-18T05:58:00.437Z,5.0146
2023-04-18T05:59:04.587Z,5.7901
2023-04-18T06:00:08.476Z,5.5013
2023-04-18T06:01:12.407Z,6.8122
2023-04-18T06:02:16.379Z,4.9432
2023-04-18T06:03:20.600Z,6.6745
2023-04-18T06:04:24.670Z,5.8238
2023-04-18T06:05:28.899Z,6.4181
2023-04-18T06:06:33.239Z,6.1871
2023-04-18T06:07:37.132Z,5.2638
2023-04-18T06:08:41.055Z,5.9872
2023-04-18T06:09:44.970Z,4.9058
2023-04-18T06:10:48.885Z,6.0681
2023-04-18T06:11:52.828Z,6.0862
2023-04-18T06:12:56.704Z,5.7330
2023-04-18T06:14:00.863Z,7.4727
2023-04-18T06:15:04.762Z,6.6193
2023-04-18T06:16:08.878Z,5.7396
2023-04-18T06:17:12.859Z,5.7815
2023-04-18T06:18:16.738Z,5.8285
2023-04-18T06:19:20.651Z,4.9976
2023-04-18T06:20:24.544Z,6.2736
2023-04-18T06:21:28.436Z,7.2289
2023-04-18T06:22:32.326Z,6.6219
2023-04-18T06:23:36.454Z,7.0128
2023-04-18T06:24:40.345Z,7.3254
2023-04-18T06:25:44.225Z,7.1134
2023-04-18T06:26:48.391Z,7.6862
2023-04-18T06:27:52.270Z,6.6823
2023-04-18T06:28:56.189Z,7.4613
2023-04-18T06:30:00.165Z,7.6168
2023-04-18T06:31:04.081Z,6.8976
2023-04-18T06:32:07.964Z,8.0757
2023-04-18T06:33:11.821Z,8.1843
2023-04-18T06:34:15.905Z,6.6466
2023-04-18T06:35:19.968Z,7.8013
2023-04-18T06:36:24.102Z,6.4818
2023-04-18T06:37:27.995Z,6.4718
2023-04-18T06:38:31.875Z,6.0669
2023-04-18T06:39:35.799Z,7.1307
2023-04-18T06:40:39.738Z,6.4730
2023-04-18T06:41:43.649Z,6.4277
2023-04-18T06:42:47.563Z,6.2169
2023-04-18T06:44:02.851Z,6.4252
2023-04-18T06:44:55.947Z,6.1502
2023-04-18T06:45:59.944Z,8.5464
2023-04-18T06:47:03.845Z,7.0368
2023-04-18T06:48:07.820Z,5.8999
2023-04-18T06:49:11.694Z,6.3026
2023-04-18T06:50:15.579Z,5.7527
2023-04-18T06:51:19.483Z,6.6412
2023-04-18T06:52:23.948Z,6.7043
2023-04-18T06:53:27.818Z,6.2102
2023-04-18T06:54:31.718Z,7.4495
2023-04-18T06:55:35.629Z,7.5116
2023-04-18T06:56:39.565Z,6.5755
2023-04-18T06:57:43.463Z,6.1272
2023-04-18T06:58:47.370Z,7.1582
2023-04-18T06:59:51.261Z,6.9255
2023-04-18T07:00:55.190Z,7.7855
2023-04-18T07:01:59.087Z,7.2196
2023-04-18T07:03:03.101Z,5.9807
2023-04-18T07:04:07.166Z,7.5458
2023-04-18T07:05:11.106Z,7.5296
2023-04-18T07:06:14.995Z,7.2068
2023-04-18T07:07:18.934Z,7.7833
2023-04-18T07:08:22.906Z,7.3677
2023-04-18T07:09:26.860Z,7.7729
2023-04-18T07:10:30.774Z,7.2460
2023-04-18T07:11:34.926Z,6.1832
2023-04-18T07:12:38.833Z,6.9679
2023-04-18T07:13:42.973Z,6.7981
2023-04-18T07:14:46.918Z,7.5431
2023-04-18T07:15:50.813Z,7.9316
2023-04-18T07:16:54.774Z,6.7515
2023-04-18T07:17:58.803Z,7.5557
2023-04-18T07:19:02.704Z,7.8373
2023-04-18T07:20:06.619Z,6.3499
2023-04-18T07:21:10.610Z,5.7437
2023-04-18T07:22:14.531Z,6.3560
2023-04-18T07:23:18.456Z,6.9753
2023-04-18T07:24:22.392Z,7.3999
2023-04-18T07:25:26.310Z,8.5940
2023-04-18T07:26:30.241Z,7.7259
2023-04-18T07:27:34.151Z,6.7788
2023-04-18T07:28:38.401Z,8.3257
2023-04-18T07:29:42.285Z,7.8957
2023-04-18T07:30:46.294Z,7.3676
2023-04-18T07:31:50.216Z,8.5735
2023-04-18T07:32:54.189Z,7.3068
2023-04-18T07:33:58.130Z,7.2723
2023-04-18T07:35:02.157Z,8.1076
2023-04-18T07:36:06.088Z,7.3054
2023-04-18T07:37:10.015Z,6.9541
2023-04-18T07:38:13.963Z,8.2583
2023-04-18T07:39:17.858Z,8.7282
2023-04-18T07:40:21.837Z,8.7104
2023-04-18T07:41:25.730Z,7.4076
2023-04-18T07:42:29.642Z,7.5662
2023-04-18T07:43:33.546Z,8.7568
2023-04-18T07:44:37.509Z,8.4362
2023-04-18T07:45:41.408Z,7.8255
2023-04-18T07:46:45.411Z,8.4469
2023-04-18T07:47:49.388Z,7.2829
2023-04-18T07:48:53.282Z,7.5383
2023-04-18T07:49:57.269Z,7.9430
2023-04-18T07:51:01.187Z,8.0427
2023-04-18T07:52:05.123Z,6.2774
2023-04-18T07:53:09.292Z,7.1404
2023-04-18T07:54:13.242Z,7.2308
2023-04-18T07:55:17.170Z,8.2362
2023-04-18T07:56:21.097Z,7.8071
2023-04-18T07:57:25.019Z,6.8920
2023-04-18T07:58:28.956Z,7.2866
2023-04-18T07:59:32.871Z,7.6545
2023-04-18T08:00:36.827Z,8.2454
2023-04-18T08:01:40.799Z,8.0938
2023-04-18T08:02:44.814Z,7.4038
2023-04-18T08:03:48.868Z,9.1779
2023-04-18T08:04:53.054Z,8.1236
2023-04-18T08:05:57.126Z,8.6793
2023-04-18T08:07:01.070Z,8.0380
2023-04-18T08:08:05.014Z,8.9971
2023-04-18T08:09:08.919Z,7.8458
2023-04-18T08:10:13.107Z,9.0241
2023-04-18T08:11:17.010Z,8.8124
2023-04-18T08:12:20.940Z,9.4961
2023-04-18T08:13:24.873Z,8.8451
2023-04-18T08:14:28.848Z,8.6921
2023-04-18T08:15:33.050Z,7.2556
2023-04-18T08:16:37.002Z,8.1592
2023-04-18T08:17:40.979Z,8.2099
2023-04-18T08:18:44.906Z,7.9276
2023-04-18T08:19:48.859Z,7.6451
2023-04-18T08:20:52.817Z,7.6168
2023-04-18T08:21:56.886Z,8.9550
2023-04-18T08:23:07.323Z,8.4162
2023-04-18T08:24:05.406Z,8.8337
2023-04-18T08:25:09.505Z,9.2738
2023-04-18T08:26:13.426Z,9.0900
2023-04-18T08:27:17.367Z,9.4909
2023-04-18T08:28:21.536Z,9.6858
2023-04-18T08:29:25.446Z,9.5924
2023-04-18T08:30:29.429Z,7.6670
2023-04-18T08:31:33.436Z,7.3997
2023-04-18T08:32:37.507Z,9.8791
2023-04-18T08:33:41.453Z,9.6366
2023-04-18T08:34:45.372Z,9.8338
2023-04-18T08:35:49.334Z,9.4665
2023-04-18T08:36:53.312Z,7.9297
2023-04-18T08:37:57.311Z,8.1201
2023-04-18T08:39:01.236Z,8.7917
2023-04-18T08:40:05.207Z,9.6197
2023-04-18T08:41:09.169Z,9.0136
2023-04-18T08:42:13.082Z,8.8544
2023-04-18T08:43:17.048Z,9.1053
2023-04-18T08:44:21.046Z,9.1342
2023-04-18T08:45:25.016Z,9.3637
2023-04-18T08:46:29.261Z,9.6030
2023-04-18T08:47:33.189Z,10.0601
2023-04-18T08:48:37.228Z,9.2684
2023-04-18T08:49:41.161Z,9.2229
2023-04-18T08:50:45.185Z,10.5930
2023-04-18T08:51:49.057Z,8.4506
2023-04-18T08:52:52.993Z,9.3548
2023-04-18T08:53:56.925Z,10.1397
2023-04-18T08:55:01.006Z,7.3679
2023-04-18T08:56:04.935Z,10.9311
2023-04-18T08:57:09.009Z,8.6010
2023-04-18T08:58:13.015Z,10.1569
2023-04-18T08:59:16.993Z,9.6015
2023-04-18T09:00:21.005Z,8.9663
2023-04-18T09:01:24.966Z,8.1477
2023-04-18T09:02:28.920Z,9.6239
2023-04-18T09:03:32.870Z,9.1993
2023-04-18T09:04:36.959Z,9.7328
2023-04-18T09:05:41.186Z,9.3299
2023-04-18T09:06:46.050Z,10.3647
2023-04-18T09:07:49.951Z,9.8922
2023-04-18T09:08:53.845Z,11.0726
2023-04-18T09:09:53.969Z,11.2214
2023-04-18T09:10:57.860Z,10.5042
2023-04-18T09:12:01.790Z,9.0686
2023-04-18T09:13:05.699Z,8.4493
2023-04-18T09:14:09.629Z,9.3308
2023-04-18T09:15:13.606Z,7.6636
2023-04-18T09:16:17.561Z,10.0646
2023-04-18T09:17:21.522Z,9.1093
2023-04-18T09:18:25.715Z,8.3858
2023-04-18T09:19:29.644Z,8.7431
2023-04-18T09:20:33.585Z,11.2530
2023-04-18T09:21:37.492Z,9.1487
2023-04-18T09:22:41.406Z,10.3714
2023-04-18T09:23:45.336Z,8.4878
2023-04-18T09:24:49.224Z,8.7354
2023-04-18T09:25:53.154Z,9.8999
2023-04-18T09:26:57.098Z,10.2024
2023-04-18T09:28:01.273Z,8.3996
2023-04-18T09:29:05.358Z,9.0194
2023-04-18T09:30:09.272Z,11.1862
2023-04-18T09:31:13.306Z,10.0119
2023-04-18T09:32:17.314Z,10.1227
2023-04-18T09:33:21.211Z,8.1555
2023-04-18T09:34:25.213Z,9.1176
2023-04-18T09:35:29.103Z,9.0388
2023-04-18T09:36:33.105Z,7.5304
2023-04-18T09:37:37.010Z,9.4281
2023-04-18T09:38:41.112Z,9.0813
2023-04-18T09:39:45.146Z,9.4771
2023-04-18T09:40:49.081Z,10.5427
2023-04-18T09:41:52.990Z,10.5565
2023-04-18T09:42:56.961Z,8.6781
2023-04-18T09:44:00.875Z,10.5045
2023-04-18T09:45:05.121Z,9.3348
2023-04-18T09:46:09.079Z,8.9523
2023-04-18T09:47:13.080Z,8.2976
2023-04-18T09:48:16.973Z,8.9942
2023-04-18T09:49:20.884Z,9.8318
2023-04-18T09:50:24.810Z,8.9465
2023-04-18T09:51:28.783Z,9.4451
2023-04-18T09:52:32.859Z,8.5806
2023-04-18T09:53:36.786Z,9.4067
2023-04-18T09:54:40.666Z,8.7018
2023-04-18T09:55:44.596Z,9.3658
2023-04-18T09:56:48.523Z,10.4746
2023-04-18T09:57:52.704Z,10.3884
2023-04-18T09:58:56.660Z,10.1459
2023-04-18T10:00:00.592Z,8.7548
2023-04-18T10:01:04.513Z,10.4081
2023-04-18T10:02:08.582Z,9.9420
2023-04-18T10:03:12.603Z,10.7294
2023-04-18T10:04:16.971Z,10.2575
2023-04-18T10:05:21.434Z,10.0114
2023-04-18T10:06:25.413Z,10.5701
2023-04-18T10:07:29.306Z,10.2068
2023-04-18T10:08:33.209Z,9.4840
2023-04-18T10:09:37.126Z,9.6100
2023-04-18T10:10:41.096Z,9.0992
2023-04-18T10:11:44.988Z,9.0408
2023-04-18T10:12:48.989Z,9.6024
2023-04-18T10:13:53.035Z,10.0534
2023-04-18T10:14:56.970Z,10.6498
2023-04-18T10:16:00.884Z,9.2264
2023-04-18T10:17:04.767Z,9.4446
2023-04-18T10:18:08.727Z,12.0678
2023-04-18T10:19:13.109Z,10.8073
2023-04-18T10:20:17.226Z,10.1915
2023-04-18T10:21:21.181Z,10.1550
2023-04-18T10:22:25.116Z,8.6513
2023-04-18T10:23:29.055Z,10.5390
2023-04-18T10:24:33.092Z,11.2186
2023-04-18T10:25:37.110Z,8.2947
2023-04-18T10:26:41.061Z,9.8130
2023-04-18T10:27:45.335Z,10.5386
2023-04-18T10:28:49.295Z,9.2430
2023-04-18T10:29:53.275Z,11.1694
2023-04-18T10:30:57.404Z,11.2910
2023-04-18T10:32:01.393Z,10.7383
2023-04-18T10:33:08.494Z,9.5154
2023-04-18T10:34:09.847Z,11.2191
2023-04-18T10:35:13.832Z,9.4841
2023-04-18T10:36:17.805Z,10.5844
2023-04-18T10:37:21.808Z,9.7620
2023-04-18T10:38:25.834Z,10.9597
2023-04-18T10:39:29.777Z,10.4774
2023-04-18T10:40:33.781Z,11.8514
2023-04-18T10:41:37.754Z,11.0703
2023-04-18T10:42:41.748Z,9.7287
2023-04-18T10:43:45.648Z,10.8123
2023-04-18T10:44:49.897Z,11.7275
2023-04-18T10:45:53.917Z,12.4119
2023-04-18T10:46:57.864Z,9.9760
2023-04-18T10:47:58.343Z,12.5925
2023-04-18T10:49:02.248Z,11.2969
2023-04-18T10:50:06.968Z,10.1565
2023-04-18T10:51:11.075Z,10.4658
2023-04-18T10:52:15.037Z,10.9139
2023-04-18T10:53:18.986Z,10.8799
2023-04-18T10:54:22.975Z,10.2422
2023-04-18T10:55:27.103Z,10.7594
2023-04-18T10:56:31.115Z,10.6377
2023-04-18T10:57:35.247Z,10.5690
2023-04-18T10:58:39.147Z,11.2630
2023-04-18T10:59:43.102Z,10.7025
2023-04-18T11:00:47.121Z,10.4233
2023-04-18T11:01:51.026Z,11.6679
2023-04-18T11:02:55.190Z,10.8213
2023-04-18T11:03:59.297Z,9.1113
2023-04-18T11:05:03.299Z,11.4191
2023-04-18T11:06:07.239Z,10.5955
2023-04-18T11:07:11.788Z,10.8534
2023-04-18T11:08:15.838Z,12.8163
2023-04-18T11:09:19.795Z,11.3142
2023-04-18T11:10:23.902Z,12.8061
2023-04-18T11:11:27.828Z,11.9898
2023-04-18T11:12:31.782Z,12.6235
2023-04-18T11:13:35.771Z,10.6469
2023-04-18T11:14:39.824Z,11.1268
2023-04-18T11:15:43.783Z,11.4934
2023-04-18T11:16:47.858Z,10.9693
2023-04-18T11:17:51.907Z,11.3196
2023-04-18T11:18:55.888Z,10.2351
2023-04-18T11:19:59.927Z,11.2403
2023-04-18T11:21:03.951Z,11.0368
2023-04-18T11:22:07.906Z,11.7657
2023-04-18T11:23:11.944Z,11.0575
2023-04-18T11:24:16.039Z,10.7246
2023-04-18T11:25:20.147Z,11.1599
2023-04-18T11:26:24.217Z,11.5358
2023-04-18T11:27:28.163Z,12.1113
2023-04-18T11:28:32.167Z,11.3191
2023-04-18T11:29:36.468Z,10.9790
2023-04-18T11:30:40.361Z,11.0619
2023-04-18T11:31:44.378Z,12.0718
2023-04-18T11:32:48.354Z,10.6675
2023-04-18T11:33:52.287Z,11.6205
2023-04-18T11:34:56.268Z,11.3193
2023-04-18T11:36:00.288Z,12.9092
2023-04-18T11:37:04.213Z,12.1468
2023-04-18T11:38:08.157Z,11.7211
2023-04-18T11:39:12.117Z,11.9955
2023-04-18T11:40:16.277Z,12.0326
2023-04-18T11:41:20.242Z,14.1676
2023-04-18T11:42:24.457Z,11.5915
2023-04-18T11:43:28.352Z,10.9515
2023-04-18T11:44:33.764Z,10.0477
2023-04-18T11:45:34.096Z,12.6753
2023-04-18T11:46:38.368Z,11.1043
2023-04-18T11:47:42.579Z,12.1909
2023-04-18T11:48:46.499Z,13.6528
2023-04-18T11:49:50.509Z,12.3860
2023-04-18T11:50:54.465Z,12.2029
2023-04-18T11:51:58.627Z,11.6861
2023-04-18T11:53:02.537Z,11.4809
2023-04-18T11:54:06.465Z,13.7745
2023-04-18T11:55:10.660Z,14.7659
2023-04-18T11:56:14.585Z,10.3708
2023-04-18T11:57:18.523Z,10.5283
2023-04-18T11:58:22.461Z,10.1962
2023-04-18T11:59:26.400Z,10.7395
2023-04-18T12:00:30.383Z,10.6719
2023-04-18T12:01:34.281Z,10.1690
2023-04-18T12:02:38.472Z,11.9697
2023-04-18T12:03:42.669Z,12.5932
2023-04-18T12:04:47.037Z,12.3857
2023-04-18T12:05:51.370Z,11.9449
2023-04-18T12:06:55.393Z,10.8010
2023-04-18T12:07:59.291Z,12.8501
2023-04-18T12:09:03.193Z,12.6588
2023-04-18T12:10:07.370Z,10.7368
2023-04-18T12:11:11.320Z,11.5539
2023-04-18T12:12:15.275Z,12.1254
2023-04-18T12:13:19.238Z,10.8073
2023-04-18T12:14:23.292Z,9.8297
2023-04-18T12:15:27.304Z,10.3440
2023-04-18T12:16:31.295Z,10.8166
2023-04-18T12:17:35.275Z,10.9295
2023-04-18T12:18:39.271Z,11.3898
2023-04-18T12:19:43.132Z,10.5845
2023-04-18T12:20:47.105Z,10.7973
2023-04-18T12:21:51.050Z,8.8947
2023-04-18T12:22:55.052Z,9.1960
2023-04-18T12:23:58.979Z,11.3830
2023-04-18T12:25:02.885Z,10.8461
2023-04-18T12:26:06.816Z,11.0835
2023-04-18T12:27:11.025Z,10.8481
2023-04-18T12:28:14.975Z,9.6715
2023-04-18T12:29:19.292Z,10.6093
2023-04-18T12:30:23.187Z,10.8936
2023-04-18T12:31:27.214Z,10.9742
2023-04-18T12:32:31.237Z,10.9185
2023-04-18T12:33:35.238Z,12.1656
2023-04-18T12:34:39.197Z,10.1271
2023-04-18T12:35:43.116Z,10.6668
2023-04-18T12:36:47.346Z,11.2897
2023-04-18T12:37:51.245Z,11.1226
2023-04-18T12:38:55.201Z,11.1520
2023-04-18T12:39:59.163Z,11.1794
2023-04-18T12:41:03.112Z,10.3609
2023-04-18T12:42:07.041Z,10.3629
2023-04-18T12:43:11.001Z,9.5763
2023-04-18T12:44:15.135Z,9.7661
2023-04-18T12:45:19.105Z,9.2969
2023-04-18T12:46:23.129Z,10.8932
2023-04-18T12:47:27.130Z,10.8854
2023-04-18T12:48:31.057Z,9.5880
2023-04-18T12:49:34.982Z,10.2424
2023-04-18T12:50:38.915Z,10.8860
2023-04-18T12:51:42.796Z,9.5289
2023-04-18T12:52:46.732Z,9.5340
2023-04-18T12:53:50.642Z,9.9655
2023-04-18T12:54:54.803Z,9.8638
2023-04-18T12:55:58.754Z,11.1124
2023-04-18T12:57:02.785Z,10.1697
2023-04-18T12:58:06.718Z,8.7168
2023-04-18T12:59:10.710Z,10.0745
2023-04-18T13:00:14.704Z,9.6703
2023-04-18T13:01:18.621Z,8.8419
2023-04-18T13:02:22.737Z,10.0401
2023-04-18T13:03:26.939Z,9.2263
2023-04-18T13:04:31.887Z,8.6398
2023-04-18T13:05:36.025Z,10.3692
2023-04-18T13:06:39.917Z,10.9151
2023-04-18T13:07:43.821Z,9.7152
2023-04-18T13:08:47.828Z,9.3426
2023-04-18T13:09:51.749Z,10.6612
2023-04-18T13:10:55.712Z,9.0296
2023-04-18T13:11:59.860Z,9.8186
2023-04-18T13:13:03.784Z,10.3090